sensor_id;sensor_type;location;lat;lon;timestamp;pressure;altitude;pressure_sealevel;temperature;humidity
49451;BME280;35336;48.400;10.886;2023-05-11T00:00:15;96055.78;;;9.77;100.00
49451;BME280;35336;48.400;10.886;2023-05-11T00:00:30;96059.88;;;9.80;100.00
49451;BME280;35336;48.400;10.886;2023-05-11T00:00:46;96047.16;;;9.75;100.00
49451;BME280;35336;48.400;10.886;2023-05-11T00:01:07;96057.44;;;9.78;100.00
49451;BME280;35336;48.400;10.886;2023-05-11T00:01:23;96059.09;;;9.79;100.00
49451;BME280;35336;48.400;10.886;2023-05-11T00:01:38;96054.78;;;9.78;100.00
49451;BME280;35336;48.400;10.886;2023-05-11T00:01:53;96056.22;;;9.81;100.00
49451;BME280;35336;48.400;10.886;2023-05-11T00:02:11;96049.63;;;9.77;100.00
49451;BME280;35336;48.400;10.886;2023-05-11T00:02:26;96048.00;;;9.76;100.00
49451;BME280;35336;48.400;10.886;2023-05-11T00:02:41;96036.50;;;9.68;100.00
49451;BME280;35336;48.400;10.886;2023-05-11T00:02:56;96042.25;;;9.72;100.00
49451;BME280;35336;48.400;10.886;2023-05-11T00:03:12;96062.56;;;9.80;100.00
49451;BME280;35336;48.400;10.886;2023-05-11T00:03:27;96046.94;;;9.70;100.00
49451;BME280;35336;48.400;10.886;2023-05-11T00:03:42;96057.44;;;9.78;100.00
49451;BME280;35336;48.400;10.886;2023-05-11T00:03:58;96057.03;;;9.81;100.00
49451;BME280;35336;48.400;10.886;2023-05-11T00:04:13;96053.75;;;9.79;100.00
49451;BME280;35336;48.400;10.886;2023-05-11T00:04:29;96062.34;;;9.81;100.00
49451;BME280;35336;48.400;10.886;2023-05-11T00:04:44;96057.84;;;9.82;100.00
49451;BME280;35336;48.400;10.886;2023-05-11T00:04:59;96056.41;;;9.79;100.00
49451;BME280;35336;48.400;10.886;2023-05-11T00:05:15;96058.03;;;9.80;100.00
49451;BME280;35336;48.400;10.886;2023-05-11T00:05:30;96057.66;;;9.83;100.00
49451;BME280;35336;48.400;10.886;2023-05-11T00:05:46;96041.22;;;9.73;100.00
49451;BME280;35336;48.400;10.886;2023-05-11T00:06:02;96055.38;;;9.80;100.00
49451;BME280;35336;48.400;10.886;2023-05-11T00:06:17;96055.38;;;9.80;100.00
49451;BME280;35336;48.400;10.886;2023-05-11T00:06:33;96049.44;;;9.78;100.00
49451;BME280;35336;48.400;10.886;2023-05-11T00:06:48;96045.94;;;9.78;100.00
49451;BME280;35336;48.400;10.886;2023-05-11T00:07:03;96057.44;;;9.85;100.00
49451;BME280;35336;48.400;10.886;2023-05-11T00:07:19;96052.09;;;9.78;100.00
49451;BME280;35336;48.400;10.886;2023-05-11T00:07:34;96048.84;;;9.83;100.00
49451;BME280;35336;48.400;10.886;2023-05-11T00:07:49;96045.94;;;9.78;100.00
49451;BME280;35336;48.400;10.886;2023-05-11T00:08:04;96054.13;;;9.76;100.00
49451;BME280;35336;48.400;10.886;2023-05-11T00:08:20;96054.34;;;9.81;100.00
49451;BME280;35336;48.400;10.886;2023-05-11T00:08:35;96044.72;;;9.74;100.00
49451;BME280;35336;48.400;10.886;2023-05-11T00:08:51;96032.22;;;9.74;100.00
49451;BME280;35336;48.400;10.886;2023-05-11T00:09:06;96052.72;;;9.80;100.00
49451;BME280;35336;48.400;10.886;2023-05-11T00:09:21;96055.78;;;9.84;100.00
49451;BME280;35336;48.400;10.886;2023-05-11T00:09:36;96052.75;;;9.87;100.00
49451;BME280;35336;48.400;10.886;2023-05-11T00:09:52;96058.28;;;9.85;100.00
49451;BME280;35336;48.400;10.886;2023-05-11T00:10:07;96048.00;;;9.82;100.00
49451;BME280;35336;48.400;10.886;2023-05-11T00:10:23;96057.06;;;9.88;100.00
49451;BME280;35336;48.400;10.886;2023-05-11T00:10:38;96055.41;;;9.87;100.00
49451;BME280;35336;48.400;10.886;2023-05-11T00:10:53;96046.19;;;9.83;100.00
49451;BME280;35336;48.400;10.886;2023-05-11T00:11:09;96049.03;;;9.81;100.00
49451;BME280;35336;48.400;10.886;2023-05-11T00:11:24;96049.66;;;9.83;100.00
49451;BME280;35336;48.400;10.886;2023-05-11T00:11:39;96030.78;;;9.72;100.00
49451;BME280;35336;48.400;10.886;2023-05-11T00:11:55;96047.59;;;9.79;100.00
49451;BME280;35336;48.400;10.886;2023-05-11T00:12:10;96041.03;;;9.75;100.00
49451;BME280;35336;48.400;10.886;2023-05-11T00:12:25;96054.34;;;9.81;100.00
49451;BME280;35336;48.400;10.886;2023-05-11T00:12:40;96049.25;;;9.80;100.00
49451;BME280;35336;48.400;10.886;2023-05-11T00:12:56;96044.13;;;9.78;100.00
49451;BME280;35336;48.400;10.886;2023-05-11T00:13:11;96051.28;;;9.78;100.00
49451;BME280;35336;48.400;10.886;2023-05-11T00:13:27;96038.97;;;9.70;100.00
49451;BME280;35336;48.400;10.886;2023-05-11T00:13:42;96033.63;;;9.70;100.00
49451;BME280;35336;48.400;10.886;2023-05-11T00:13:58;96037.75;;;9.73;100.00
49451;BME280;35336;48.400;10.886;2023-05-11T00:14:13;96047.16;;;9.75;100.00
49451;BME280;35336;48.400;10.886;2023-05-11T00:14:28;96053.75;;;9.79;100.00
49451;BME280;35336;48.400;10.886;2023-05-11T00:14:43;96050.66;;;9.76;100.00
49451;BME280;35336;48.400;10.886;2023-05-11T00:14:59;96053.94;;;9.78;100.00
49451;BME280;35336;48.400;10.886;2023-05-11T00:15:14;96053.53;;;9.81;100.00
49451;BME280;35336;48.400;10.886;2023-05-11T00:15:29;96044.72;;;9.74;100.00
49451;BME280;35336;48.400;10.886;2023-05-11T00:15:45;96059.09;;;9.79;100.00
49451;BME280;35336;48.400;10.886;2023-05-11T00:16:00;96049.41;;;9.72;100.00
49451;BME280;35336;48.400;10.886;2023-05-11T00:16:15;96058.44;;;9.77;100.00
49451;BME280;35336;48.400;10.886;2023-05-11T00:16:30;96052.50;;;9.75;100.00
49451;BME280;35336;48.400;10.886;2023-05-11T00:16:46;96049.19;;;9.66;100.00
49451;BME280;35336;48.400;10.886;2023-05-11T00:17:01;96053.50;;;9.74;100.00
49451;BME280;35336;48.400;10.886;2023-05-11T00:17:16;96059.09;;;9.79;100.00
49451;BME280;35336;48.400;10.886;2023-05-11T00:17:32;96038.34;;;9.68;100.00
49451;BME280;35336;48.400;10.886;2023-05-11T00:17:47;96064.00;;;9.82;100.00
49451;BME280;35336;48.400;10.886;2023-05-11T00:18:02;96047.59;;;9.79;100.00
49451;BME280;35336;48.400;10.886;2023-05-11T00:18:17;96055.38;;;9.80;100.00
49451;BME280;35336;48.400;10.886;2023-05-11T00:18:33;96062.78;;;9.85;100.00
49451;BME280;35336;48.400;10.886;2023-05-11T00:18:48;96054.78;;;9.85;100.00
49451;BME280;35336;48.400;10.886;2023-05-11T00:19:03;96057.84;;;9.82;100.00
49451;BME280;35336;48.400;10.886;2023-05-11T00:19:19;96051.09;;;9.79;100.00
49451;BME280;35336;48.400;10.886;2023-05-11T00:19:34;96052.09;;;9.78;100.00
49451;BME280;35336;48.400;10.886;2023-05-11T00:19:49;96051.25;;;9.71;100.00
49451;BME280;35336;48.400;10.886;2023-05-11T00:20:05;96060.69;;;9.80;100.00
49451;BME280;35336;48.400;10.886;2023-05-11T00:20:20;96053.13;;;9.77;100.00
49451;BME280;35336;48.400;10.886;2023-05-11T00:20:36;96065.41;;;9.78;100.00
49451;BME280;35336;48.400;10.886;2023-05-11T00:20:51;96066.81;;;9.74;100.00
49451;BME280;35336;48.400;10.886;2023-05-11T00:21:06;96059.84;;;9.66;100.00
49451;BME280;35336;48.400;10.886;2023-05-11T00:21:22;96047.91;;;9.62;100.00
49451;BME280;35336;48.400;10.886;2023-05-11T00:21:37;96064.75;;;9.69;100.00
49451;BME280;35336;48.400;10.886;2023-05-11T00:21:52;96061.28;;;9.69;100.00
49451;BME280;35336;48.400;10.886;2023-05-11T00:22:08;96058.41;;;9.64;100.00
49451;BME280;35336;48.400;10.886;2023-05-11T00:22:23;96064.16;;;9.67;100.00
49451;BME280;35336;48.400;10.886;2023-05-11T00:22:38;96064.31;;;9.66;100.00
49451;BME280;35336;48.400;10.886;2023-05-11T00:22:54;96056.69;;;9.56;100.00
49451;BME280;35336;48.400;10.886;2023-05-11T00:23:15;96062.44;;;9.53;100.00
49451;BME280;35336;48.400;10.886;2023-05-11T00:23:30;96061.78;;;9.51;100.00
49451;BME280;35336;48.400;10.886;2023-05-11T00:23:45;96069.16;;;9.49;100.00
49451;BME280;35336;48.400;10.886;2023-05-11T00:24:01;96060.34;;;9.48;100.00
49451;BME280;35336;48.400;10.886;2023-05-11T00:24:16;96061.38;;;9.47;100.00
49451;BME280;35336;48.400;10.886;2023-05-11T00:24:31;96066.69;;;9.47;100.00
49451;BME280;35336;48.400;10.886;2023-05-11T00:24:47;96061.38;;;9.47;100.00
49451;BME280;35336;48.400;10.886;2023-05-11T00:25:02;96056.84;;;9.41;100.00
49451;BME280;35336;48.400;10.886;2023-05-11T00:25:17;96056.00;;;9.41;100.00
49451;BME280;35336;48.400;10.886;2023-05-11T00:25:33;96044.91;;;9.37;100.00
49451;BME280;35336;48.400;10.886;2023-05-11T00:25:48;96065.03;;;9.46;100.00
49451;BME280;35336;48.400;10.886;2023-05-11T00:26:03;96056.00;;;9.41;100.00
49451;BME280;35336;48.400;10.886;2023-05-11T00:26:19;96065.88;;;9.47;100.00
49451;BME280;35336;48.400;10.886;2023-05-11T00:26:34;96048.00;;;9.41;100.00
49451;BME280;35336;48.400;10.886;2023-05-11T00:26:49;96061.16;;;9.49;100.00
49451;BME280;35336;48.400;10.886;2023-05-11T00:27:05;96062.59;;;9.51;100.00
49451;BME280;35336;48.400;10.886;2023-05-11T00:27:21;96046.63;;;9.45;100.00
49451;BME280;35336;48.400;10.886;2023-05-11T00:27:36;96056.91;;;9.54;100.00
49451;BME280;35336;48.400;10.886;2023-05-11T00:27:51;96048.69;;;9.49;100.00
49451;BME280;35336;48.400;10.886;2023-05-11T00:28:07;96043.59;;;9.54;100.00
49451;BME280;35336;48.400;10.886;2023-05-11T00:28:22;96054.66;;;9.58;100.00
49451;BME280;35336;48.400;10.886;2023-05-11T00:28:37;96052.81;;;9.59;100.00
49451;BME280;35336;48.400;10.886;2023-05-11T00:28:53;96044.84;;;9.59;100.00
49451;BME280;35336;48.400;10.886;2023-05-11T00:29:08;96049.13;;;9.60;100.00
49451;BME280;35336;48.400;10.886;2023-05-11T00:29:24;96054.09;;;9.63;100.00
49451;BME280;35336;48.400;10.886;2023-05-11T00:29:39;96052.22;;;9.57;100.00
49451;BME280;35336;48.400;10.886;2023-05-11T00:29:54;96036.84;;;9.52;100.00
49451;BME280;35336;48.400;10.886;2023-05-11T00:30:10;96056.34;;;9.66;100.00
49451;BME280;35336;48.400;10.886;2023-05-11T00:30:26;96054.50;;;9.66;100.00
49451;BME280;35336;48.400;10.886;2023-05-11T00:30:41;96059.00;;;9.66;100.00
49451;BME280;35336;48.400;10.886;2023-05-11T00:30:57;96043.81;;;9.60;100.00
49451;BME280;35336;48.400;10.886;2023-05-11T00:31:12;96057.97;;;9.67;100.00
49451;BME280;35336;48.400;10.886;2023-05-11T00:31:27;96063.94;;;9.69;100.00
49451;BME280;35336;48.400;10.886;2023-05-11T00:31:43;96049.19;;;9.66;100.00
49451;BME280;35336;48.400;10.886;2023-05-11T00:31:58;96036.66;;;9.60;100.00
49451;BME280;35336;48.400;10.886;2023-05-11T00:32:13;96058.59;;;9.69;100.00
49451;BME280;35336;48.400;10.886;2023-05-11T00:32:28;96051.00;;;9.66;100.00
49451;BME280;35336;48.400;10.886;2023-05-11T00:32:44;96054.09;;;9.69;100.00
49451;BME280;35336;48.400;10.886;2023-05-11T00:33:00;96053.28;;;9.69;100.00
49451;BME280;35336;48.400;10.886;2023-05-11T00:33:15;96053.28;;;9.69;100.00
49451;BME280;35336;48.400;10.886;2023-05-11T00:33:30;96048.56;;;9.64;100.00
49451;BME280;35336;48.400;10.886;2023-05-11T00:33:46;96049.63;;;9.70;100.00
49451;BME280;35336;48.400;10.886;2023-05-11T00:34:01;96043.63;;;9.61;100.00
49451;BME280;35336;48.400;10.886;2023-05-11T00:34:16;96051.25;;;9.71;100.00
49451;BME280;35336;48.400;10.886;2023-05-11T00:34:32;96053.72;;;9.73;100.00
49451;BME280;35336;48.400;10.886;2023-05-11T00:34:47;96046.94;;;9.70;100.00
49451;BME280;35336;48.400;10.886;2023-05-11T00:35:02;96054.34;;;9.75;100.00
49451;BME280;35336;48.400;10.886;2023-05-11T00:35:18;96040.34;;;9.66;100.00
49451;BME280;35336;48.400;10.886;2023-05-11T00:35:33;96047.38;;;9.74;100.00
49451;BME280;35336;48.400;10.886;2023-05-11T00:35:49;96050.84;;;9.74;100.00
49451;BME280;35336;48.400;10.886;2023-05-11T00:36:05;96052.91;;;9.72;100.00
49451;BME280;35336;48.400;10.886;2023-05-11T00:36:21;96043.44;;;9.63;100.00
49451;BME280;35336;48.400;10.886;2023-05-11T00:36:36;96036.25;;;9.57;100.00
49451;BME280;35336;48.400;10.886;2023-05-11T00:36:51;96027.84;;;9.53;100.00
49451;BME280;35336;48.400;10.886;2023-05-11T00:37:07;96053.66;;;9.66;100.00
49451;BME280;35336;48.400;10.886;2023-05-11T00:37:22;96053.66;;;9.66;100.00
49451;BME280;35336;48.400;10.886;2023-05-11T00:37:38;96045.03;;;9.57;100.00
49451;BME280;35336;48.400;10.886;2023-05-11T00:37:53;96044.22;;;9.57;100.00
49451;BME280;35336;48.400;10.886;2023-05-11T00:38:09;96057.38;;;9.65;100.00
49451;BME280;35336;48.400;10.886;2023-05-11T00:38:24;96058.41;;;9.64;100.00
49451;BME280;35336;48.400;10.886;2023-05-11T00:38:39;96040.94;;;9.54;100.00
49451;BME280;35336;48.400;10.886;2023-05-11T00:38:54;96056.53;;;9.64;100.00
49451;BME280;35336;48.400;10.886;2023-05-11T00:39:10;96039.69;;;9.50;100.00
49451;BME280;35336;48.400;10.886;2023-05-11T00:39:25;96048.69;;;9.49;100.00
49451;BME280;35336;48.400;10.886;2023-05-11T00:39:41;96055.47;;;9.52;100.00
49451;BME280;35336;48.400;10.886;2023-05-11T00:39:56;96057.69;;;9.48;100.00
49451;BME280;35336;48.400;10.886;2023-05-11T00:40:11;96041.25;;;9.38;100.00
49451;BME280;35336;48.400;10.886;2023-05-11T00:40:27;96049.72;;;9.48;100.00
49451;BME280;35336;48.400;10.886;2023-05-11T00:40:42;96050.34;;;9.50;100.00
49451;BME280;35336;48.400;10.886;2023-05-11T00:40:58;96054.88;;;9.57;100.00
49451;BME280;35336;48.400;10.886;2023-05-11T00:41:13;96054.03;;;9.56;100.00
49451;BME280;35336;48.400;10.886;2023-05-11T00:41:29;96052.00;;;9.58;100.00
49451;BME280;35336;48.400;10.886;2023-05-11T00:41:44;96055.47;;;9.59;100.00
49451;BME280;35336;48.400;10.886;2023-05-11T00:41:59;96059.78;;;9.60;100.00
49451;BME280;35336;48.400;10.886;2023-05-11T00:42:14;96048.28;;;9.52;100.00
49451;BME280;35336;48.400;10.886;2023-05-11T00:42:30;96032.91;;;9.48;100.00
49451;BME280;35336;48.400;10.886;2023-05-11T00:42:45;96046.25;;;9.54;100.00
49451;BME280;35336;48.400;10.886;2023-05-11T00:43:01;96040.94;;;9.54;100.00
49451;BME280;35336;48.400;10.886;2023-05-11T00:43:16;96040.94;;;9.54;100.00
49451;BME280;35336;48.400;10.886;2023-05-11T00:43:31;96056.16;;;9.67;100.00
49451;BME280;35336;48.400;10.886;2023-05-11T00:43:47;96034.38;;;9.57;100.00
49451;BME280;35336;48.400;10.886;2023-05-11T00:44:02;96050.41;;;9.70;100.00
49451;BME280;35336;48.400;10.886;2023-05-11T00:44:17;96044.66;;;9.67;100.00
49451;BME280;35336;48.400;10.886;2023-05-11T00:44:32;96040.56;;;9.64;100.00
49451;BME280;35336;48.400;10.886;2023-05-11T00:44:48;96038.91;;;9.63;100.00
49451;BME280;35336;48.400;10.886;2023-05-11T00:45:03;96049.63;;;9.70;100.00
49451;BME280;35336;48.400;10.886;2023-05-11T00:45:19;96042.63;;;9.69;100.00
49451;BME280;35336;48.400;10.886;2023-05-11T00:45:34;96039.78;;;9.70;100.00
49451;BME280;35336;48.400;10.886;2023-05-11T00:45:50;96052.28;;;9.77;100.00
49451;BME280;35336;48.400;10.886;2023-05-11T00:46:06;96051.47;;;9.76;100.00
49451;BME280;35336;48.400;10.886;2023-05-11T00:46:21;96044.28;;;9.77;100.00
49451;BME280;35336;48.400;10.886;2023-05-11T00:46:36;96048.59;;;9.78;100.00
49451;BME280;35336;48.400;10.886;2023-05-11T00:46:52;96033.63;;;9.70;100.00
49451;BME280;35336;48.400;10.886;2023-05-11T00:47:07;96051.69;;;9.75;100.00
49451;BME280;35336;48.400;10.886;2023-05-11T00:47:23;96048.81;;;9.76;100.00
49451;BME280;35336;48.400;10.886;2023-05-11T00:47:39;96050.25;;;9.79;100.00
49451;BME280;35336;48.400;10.886;2023-05-11T00:47:54;96039.59;;;9.72;100.00
49451;BME280;35336;48.400;10.886;2023-05-11T00:48:10;96047.16;;;9.75;100.00
49451;BME280;35336;48.400;10.886;2023-05-11T00:48:25;96048.44;;;9.79;100.00
49451;BME280;35336;48.400;10.886;2023-05-11T00:48:41;96048.59;;;9.78;100.00
49451;BME280;35336;48.400;10.886;2023-05-11T00:48:56;96047.16;;;9.75;100.00
49451;BME280;35336;48.400;10.886;2023-05-11T00:49:12;96045.53;;;9.74;100.00
49451;BME280;35336;48.400;10.886;2023-05-11T00:49:28;96046.19;;;9.83;100.00
49451;BME280;35336;48.400;10.886;2023-05-11T00:49:44;96049.88;;;9.89;100.00
49451;BME280;35336;48.400;10.886;2023-05-11T00:50:00;96049.28;;;9.87;100.00
49451;BME280;35336;48.400;10.886;2023-05-11T00:50:16;96050.91;;;9.88;100.00
49451;BME280;35336;48.400;10.886;2023-05-11T00:50:32;96043.72;;;9.81;100.00
49451;BME280;35336;48.400;10.886;2023-05-11T00:50:48;96052.97;;;9.85;100.00
49451;BME280;35336;48.400;10.886;2023-05-11T00:51:04;96048.66;;;9.84;100.00
49451;BME280;35336;48.400;10.886;2023-05-11T00:51:20;96052.53;;;9.82;100.00
49451;BME280;35336;48.400;10.886;2023-05-11T00:51:37;96053.56;;;9.88;100.00
49451;BME280;35336;48.400;10.886;2023-05-11T00:51:52;96044.97;;;9.85;100.00
49451;BME280;35336;48.400;10.886;2023-05-11T00:52:07;96045.97;;;9.84;100.00
49451;BME280;35336;48.400;10.886;2023-05-11T00:52:23;96041.03;;;9.81;100.00
49451;BME280;35336;48.400;10.886;2023-05-11T00:52:40;96042.47;;;9.84;100.00
49451;BME280;35336;48.400;10.886;2023-05-11T00:52:56;96048.69;;;9.91;100.00
49451;BME280;35336;48.400;10.886;2023-05-11T00:53:12;96051.78;;;9.95;100.00
49451;BME280;35336;48.400;10.886;2023-05-11T00:53:27;96041.88;;;9.89;100.00
49451;BME280;35336;48.400;10.886;2023-05-11T00:53:43;96035.34;;;9.84;100.00
49451;BME280;35336;48.400;10.886;2023-05-11T00:53:58;96044.38;;;9.90;100.00
49451;BME280;35336;48.400;10.886;2023-05-11T00:54:14;96032.88;;;9.83;100.00
49451;BME280;35336;48.400;10.886;2023-05-11T00:54:30;96046.19;;;9.90;100.00
49451;BME280;35336;48.400;10.886;2023-05-11T00:54:46;96042.91;;;9.88;100.00
49451;BME280;35336;48.400;10.886;2023-05-11T00:55:01;96054.19;;;9.90;100.00
49451;BME280;35336;48.400;10.886;2023-05-11T00:55:18;96050.91;;;9.88;100.00
49451;BME280;35336;48.400;10.886;2023-05-11T00:55:34;96045.19;;;9.91;100.00
49451;BME280;35336;48.400;10.886;2023-05-11T00:55:49;96036.56;;;9.82;100.00
49451;BME280;35336;48.400;10.886;2023-05-11T00:56:05;96039.63;;;9.85;100.00
49451;BME280;35336;48.400;10.886;2023-05-11T00:56:20;96042.53;;;9.91;100.00
49451;BME280;35336;48.400;10.886;2023-05-11T00:56:36;96041.88;;;9.89;100.00
49451;BME280;35336;48.400;10.886;2023-05-11T00:56:54;96036.97;;;9.85;100.00
49451;BME280;35336;48.400;10.886;2023-05-11T00:57:09;96055.84;;;9.91;100.00
49451;BME280;35336;48.400;10.886;2023-05-11T00:57:25;96047.84;;;9.91;100.00
49451;BME280;35336;48.400;10.886;2023-05-11T00:57:40;96036.13;;;9.78;100.00
49451;BME280;35336;48.400;10.886;2023-05-11T00:57:55;96030.41;;;9.81;100.00
49451;BME280;35336;48.400;10.886;2023-05-11T00:58:11;96029.97;;;9.78;100.00
49451;BME280;35336;48.400;10.886;2023-05-11T00:58:26;96054.19;;;9.90;100.00
49451;BME280;35336;48.400;10.886;2023-05-11T00:58:42;96047.81;;;9.84;100.00
49451;BME280;35336;48.400;10.886;2023-05-11T00:58:58;96041.47;;;9.85;100.00
49451;BME280;35336;48.400;10.886;2023-05-11T00:59:13;96038.38;;;9.81;100.00
49451;BME280;35336;48.400;10.886;2023-05-11T00:59:29;96036.34;;;9.83;100.00
49451;BME280;35336;48.400;10.886;2023-05-11T00:59:45;96036.13;;;9.85;100.00
49451;BME280;35336;48.400;10.886;2023-05-11T01:00:01;96043.31;;;9.84;100.00
49451;BME280;35336;48.400;10.886;2023-05-11T01:00:17;96029.97;;;9.78;100.00
49451;BME280;35336;48.400;10.886;2023-05-11T01:00:32;96049.88;;;9.89;100.00
49451;BME280;35336;48.400;10.886;2023-05-11T01:00:47;96037.38;;;9.82;100.00
49451;BME280;35336;48.400;10.886;2023-05-11T01:01:03;96041.28;;;9.87;100.00
49451;BME280;35336;48.400;10.886;2023-05-11T01:01:18;96040.88;;;9.83;100.00
49451;BME280;35336;48.400;10.886;2023-05-11T01:01:34;96042.31;;;9.85;100.00
49451;BME280;35336;48.400;10.886;2023-05-11T01:01:49;96034.91;;;9.81;100.00
49451;BME280;35336;48.400;10.886;2023-05-11T01:02:05;96047.00;;;9.83;100.00
49451;BME280;35336;48.400;10.886;2023-05-11T01:02:20;96037.56;;;9.81;100.00
49451;BME280;35336;48.400;10.886;2023-05-11T01:02:36;96045.97;;;9.84;100.00
49451;BME280;35336;48.400;10.886;2023-05-11T01:02:51;96041.03;;;9.81;100.00
49451;BME280;35336;48.400;10.886;2023-05-11T01:03:07;96035.88;;;9.73;100.00
49451;BME280;35336;48.400;10.886;2023-05-11T01:03:23;96038.38;;;9.81;100.00
49451;BME280;35336;48.400;10.886;2023-05-11T01:03:38;96041.88;;;9.82;100.00
49451;BME280;35336;48.400;10.886;2023-05-11T01:03:53;96048.22;;;9.81;100.00
49451;BME280;35336;48.400;10.886;2023-05-11T01:04:09;96044.34;;;9.83;100.00
49451;BME280;35336;48.400;10.886;2023-05-11T01:04:24;96032.84;;;9.76;100.00
49451;BME280;35336;48.400;10.886;2023-05-11T01:04:40;96041.47;;;9.78;100.00
49451;BME280;35336;48.400;10.886;2023-05-11T01:04:55;96039.22;;;9.82;100.00
49451;BME280;35336;48.400;10.886;2023-05-11T01:05:11;96035.28;;;9.78;100.00
49451;BME280;35336;48.400;10.886;2023-05-11T01:05:33;96028.53;;;9.75;100.00
49451;BME280;35336;48.400;10.886;2023-05-11T01:06:30;96039.81;;;9.84;100.00
49451;BME280;35336;48.400;10.886;2023-05-11T01:07:00;96047.22;;;9.89;100.00
49451;BME280;35336;48.400;10.886;2023-05-11T01:07:24;96039.06;;;9.90;100.00
49451;BME280;35336;48.400;10.886;2023-05-11T01:07:49;96022.41;;;9.81;100.00
49451;BME280;35336;48.400;10.886;2023-05-11T01:08:15;96034.31;;;9.85;100.00
49451;BME280;35336;48.400;10.886;2023-05-11T01:08:45;96040.06;;;9.89;100.00
49451;BME280;35336;48.400;10.886;2023-05-11T01:09:05;96044.56;;;9.89;100.00
49451;BME280;35336;48.400;10.886;2023-05-11T01:11:08;96045.19;;;9.91;100.00
49451;BME280;35336;48.400;10.886;2023-05-11T01:11:32;96022.19;;;9.76;100.00
49451;BME280;35336;48.400;10.886;2023-05-11T01:11:57;96030.59;;;9.80;100.00
49451;BME280;35336;48.400;10.886;2023-05-11T01:12:31;96039.00;;;9.83;100.00
49451;BME280;35336;48.400;10.886;2023-05-11T01:13:34;96037.53;;;9.74;100.00
49451;BME280;35336;48.400;10.886;2023-05-11T01:14:13;96021.97;;;9.71;100.00
49451;BME280;35336;48.400;10.886;2023-05-11T01:14:37;96032.84;;;9.76;100.00
49451;BME280;35336;48.400;10.886;2023-05-11T01:15:45;96024.00;;;9.69;100.00
49451;BME280;35336;48.400;10.886;2023-05-11T01:16:09;96031.59;;;9.72;100.00
49451;BME280;35336;48.400;10.886;2023-05-11T01:16:27;96032.41;;;9.73;100.00
49451;BME280;35336;48.400;10.886;2023-05-11T01:16:48;96027.47;;;9.69;100.00
49451;BME280;35336;48.400;10.886;2023-05-11T01:17:09;96031.19;;;9.75;100.00
49451;BME280;35336;48.400;10.886;2023-05-11T01:18:20;96032.81;;;9.69;100.00
49451;BME280;35336;48.400;10.886;2023-05-11T01:18:39;96038.13;;;9.69;100.00
49451;BME280;35336;48.400;10.886;2023-05-11T01:19:41;96038.13;;;9.69;100.00
49451;BME280;35336;48.400;10.886;2023-05-11T01:20:02;96025.81;;;9.62;100.00
49451;BME280;35336;48.400;10.886;2023-05-11T01:20:24;96035.66;;;9.68;100.00
49451;BME280;35336;48.400;10.886;2023-05-11T01:20:43;96026.44;;;9.64;100.00
49451;BME280;35336;48.400;10.886;2023-05-11T01:21:00;96024.81;;;9.63;100.00
49451;BME280;35336;48.400;10.886;2023-05-11T01:21:16;96030.94;;;9.63;100.00
49451;BME280;35336;48.400;10.886;2023-05-11T01:21:32;96038.53;;;9.66;100.00
49451;BME280;35336;48.400;10.886;2023-05-11T01:21:49;96026.84;;;9.61;100.00
49451;BME280;35336;48.400;10.886;2023-05-11T01:22:14;96035.84;;;9.60;100.00
49451;BME280;35336;48.400;10.886;2023-05-11T01:24:19;96041.63;;;9.70;100.00
49451;BME280;35336;48.400;10.886;2023-05-11T01:26:15;96028.31;;;9.70;100.00
49451;BME280;35336;48.400;10.886;2023-05-11T01:27:44;96027.88;;;9.66;100.00
49451;BME280;35336;48.400;10.886;2023-05-11T01:30:23;96033.81;;;9.62;100.00
49451;BME280;35336;48.400;10.886;2023-05-11T01:30:53;96022.53;;;9.60;100.00
49451;BME280;35336;48.400;10.886;2023-05-11T01:31:10;96025.19;;;9.60;100.00
49451;BME280;35336;48.400;10.886;2023-05-11T01:31:29;96034.22;;;9.65;100.00
49451;BME280;35336;48.400;10.886;2023-05-11T01:31:48;96026.25;;;9.65;100.00
49451;BME280;35336;48.400;10.886;2023-05-11T01:32:40;96030.56;;;9.66;100.00
49451;BME280;35336;48.400;10.886;2023-05-11T01:32:49;96029.72;;;9.66;100.00
49451;BME280;35336;48.400;10.886;2023-05-11T01:33:08;96037.31;;;9.69;100.00
49451;BME280;35336;48.400;10.886;2023-05-11T01:33:30;96013.53;;;9.61;100.00
49451;BME280;35336;48.400;10.886;2023-05-11T01:34:00;96023.00;;;9.70;100.00
49451;BME280;35336;48.400;10.886;2023-05-11T01:34:27;96016.41;;;9.66;100.00
49451;BME280;35336;48.400;10.886;2023-05-11T01:34:46;96025.22;;;9.66;100.00
49451;BME280;35336;48.400;10.886;2023-05-11T01:35:16;96008.63;;;9.58;100.00
49451;BME280;35336;48.400;10.886;2023-05-11T01:35:34;96025.19;;;9.60;100.00
49451;BME280;35336;48.400;10.886;2023-05-11T01:35:55;96029.91;;;9.64;100.00
49451;BME280;35336;48.400;10.886;2023-05-11T01:36:15;96022.53;;;9.60;100.00
49451;BME280;35336;48.400;10.886;2023-05-11T01:36:35;96023.97;;;9.62;100.00
49451;BME280;35336;48.400;10.886;2023-05-11T01:37:05;96025.00;;;9.61;100.00
49451;BME280;35336;48.400;10.886;2023-05-11T01:37:24;96008.56;;;9.51;100.00
49451;BME280;35336;48.400;10.886;2023-05-11T01:37:45;96021.13;;;9.64;100.00
49451;BME280;35336;48.400;10.886;2023-05-11T01:38:02;96012.88;;;9.52;100.00
49451;BME280;35336;48.400;10.886;2023-05-11T01:38:20;96014.69;;;9.51;100.00
49451;BME280;35336;48.400;10.886;2023-05-11T01:38:39;96027.47;;;9.63;100.00
49451;BME280;35336;48.400;10.886;2023-05-11T01:38:57;96029.09;;;9.64;100.00
49451;BME280;35336;48.400;10.886;2023-05-11T01:39:16;96032.78;;;9.63;100.00
49451;BME280;35336;48.400;10.886;2023-05-11T01:39:37;96024.16;;;9.61;100.00
49451;BME280;35336;48.400;10.886;2023-05-11T01:39:56;96023.78;;;9.64;100.00
49451;BME280;35336;48.400;10.886;2023-05-11T01:40:14;96029.31;;;9.69;100.00